sensor_id;sensor_type;location;lat;lon;timestamp;P1;durP1;ratioP1;P2;durP2;ratioP2
12950;SDS011;6540;50.858;7.232;2023-08-30T00:01:10;3.10;;;2.77;;
12950;SDS011;6540;50.858;7.232;2023-08-30T00:03:36;2.77;;;2.50;;
12950;SDS011;6540;50.858;7.232;2023-08-30T00:06:05;3.57;;;3.00;;
12950;SDS011;6540;50.858;7.232;2023-08-30T00:08:31;3.40;;;3.00;;
12950;SDS011;6540;50.858;7.232;2023-08-30T00:10:57;2.83;;;2.53;;
12950;SDS011;6540;50.858;7.232;2023-08-30T00:13:24;4.43;;;3.10;;
12950;SDS011;6540;50.858;7.232;2023-08-30T00:15:50;3.67;;;3.37;;
12950;SDS011;6540;50.858;7.232;2023-08-30T00:18:16;2.40;;;2.20;;
12950;SDS011;6540;50.858;7.232;2023-08-30T00:20:43;2.97;;;2.77;;
12950;SDS011;6540;50.858;7.232;2023-08-30T00:23:09;4.00;;;2.67;;
12950;SDS011;6540;50.858;7.232;2023-08-30T00:25:34;2.73;;;2.43;;
12950;SDS011;6540;50.858;7.232;2023-08-30T00:27:59;3.67;;;3.07;;
12950;SDS011;6540;50.858;7.232;2023-08-30T00:30:25;3.33;;;3.03;;
12950;SDS011;6540;50.858;7.232;2023-08-30T00:32:50;4.20;;;2.60;;
12950;SDS011;6540;50.858;7.232;2023-08-30T00:35:15;3.87;;;2.77;;
12950;SDS011;6540;50.858;7.232;2023-08-30T00:37:41;3.50;;;3.13;;
12950;SDS011;6540;50.858;7.232;2023-08-30T00:40:06;9.33;;;2.87;;
12950;SDS011;6540;50.858;7.232;2023-08-30T00:42:32;3.20;;;2.90;;
12950;SDS011;6540;50.858;7.232;2023-08-30T00:44:57;2.57;;;2.37;;
12950;SDS011;6540;50.858;7.232;2023-08-30T00:47:23;3.50;;;2.83;;
12950;SDS011;6540;50.858;7.232;2023-08-30T00:49:48;3.30;;;3.00;;
12950;SDS011;6540;50.858;7.232;2023-08-30T00:52:14;7.20;;;2.73;;
12950;SDS011;6540;50.858;7.232;2023-08-30T00:54:40;3.63;;;2.97;;
12950;SDS011;6540;50.858;7.232;2023-08-30T00:57:06;3.30;;;3.00;;
12950;SDS011;6540;50.858;7.232;2023-08-30T00:59:32;2.13;;;2.03;;
12950;SDS011;6540;50.858;7.232;2023-08-30T01:01:58;3.00;;;2.80;;
12950;SDS011;6540;50.858;7.232;2023-08-30T01:04:26;2.70;;;2.50;;
12950;SDS011;6540;50.858;7.232;2023-08-30T01:06:52;3.37;;;3.07;;
12950;SDS011;6540;50.858;7.232;2023-08-30T01:09:17;4.07;;;2.70;;
12950;SDS011;6540;50.858;7.232;2023-08-30T01:17:12;3.67;;;3.37;;
12950;SDS011;6540;50.858;7.232;2023-08-30T01:19:51;3.40;;;2.73;;
12950;SDS011;6540;50.858;7.232;2023-08-30T01:22:25;2.80;;;2.60;;
12950;SDS011;6540;50.858;7.232;2023-08-30T01:27:41;2.57;;;2.10;;
12950;SDS011;6540;50.858;7.232;2023-08-30T01:30:08;2.43;;;2.23;;
12950;SDS011;6540;50.858;7.232;2023-08-30T01:32:36;3.30;;;3.00;;
12950;SDS011;6540;50.858;7.232;2023-08-30T01:35:02;2.70;;;2.50;;
12950;SDS011;6540;50.858;7.232;2023-08-30T01:37:29;3.73;;;3.30;;
12950;SDS011;6540;50.858;7.232;2023-08-30T01:39:56;3.33;;;3.03;;
12950;SDS011;6540;50.858;7.232;2023-08-30T01:42:23;2.73;;;2.53;;
12950;SDS011;6540;50.858;7.232;2023-08-30T01:44:50;3.13;;;2.60;;
12950;SDS011;6540;50.858;7.232;2023-08-30T01:47:19;3.47;;;3.23;;
12950;SDS011;6540;50.858;7.232;2023-08-30T01:49:46;3.00;;;2.73;;
12950;SDS011;6540;50.858;7.232;2023-08-30T01:52:12;2.67;;;2.47;;
12950;SDS011;6540;50.858;7.232;2023-08-30T01:54:38;2.90;;;2.70;;
12950;SDS011;6540;50.858;7.232;2023-08-30T01:57:05;4.70;;;3.40;;
12950;SDS011;6540;50.858;7.232;2023-08-30T01:59:31;3.53;;;3.23;;
12950;SDS011;6540;50.858;7.232;2023-08-30T02:01:57;2.57;;;2.37;;
12950;SDS011;6540;50.858;7.232;2023-08-30T02:04:22;3.50;;;3.10;;
12950;SDS011;6540;50.858;7.232;2023-08-30T02:12:47;3.30;;;3.00;;
12950;SDS011;6540;50.858;7.232;2023-08-30T02:15:14;3.30;;;3.00;;
12950;SDS011;6540;50.858;7.232;2023-08-30T02:17:41;3.30;;;3.00;;
12950;SDS011;6540;50.858;7.232;2023-08-30T02:20:08;3.97;;;3.57;;
12950;SDS011;6540;50.858;7.232;2023-08-30T02:22:34;3.87;;;3.57;;
12950;SDS011;6540;50.858;7.232;2023-08-30T02:25:00;8.03;;;3.43;;
12950;SDS011;6540;50.858;7.232;2023-08-30T02:27:29;3.47;;;3.17;;
12950;SDS011;6540;50.858;7.232;2023-08-30T02:29:55;4.13;;;3.20;;
12950;SDS011;6540;50.858;7.232;2023-08-30T02:32:21;6.00;;;3.43;;
12950;SDS011;6540;50.858;7.232;2023-08-30T02:34:49;5.23;;;3.00;;
12950;SDS011;6540;50.858;7.232;2023-08-30T02:37:16;3.97;;;3.20;;
12950;SDS011;6540;50.858;7.232;2023-08-30T02:39:41;3.13;;;2.90;;
12950;SDS011;6540;50.858;7.232;2023-08-30T02:42:07;3.33;;;3.03;;
12950;SDS011;6540;50.858;7.232;2023-08-30T02:44:32;3.37;;;3.07;;
12950;SDS011;6540;50.858;7.232;2023-08-30T02:46:57;3.83;;;3.23;;
12950;SDS011;6540;50.858;7.232;2023-08-30T02:49:23;3.57;;;3.10;;
12950;SDS011;6540;50.858;7.232;2023-08-30T02:51:48;4.63;;;3.70;;
12950;SDS011;6540;50.858;7.232;2023-08-30T02:54:13;3.10;;;2.90;;
12950;SDS011;6540;50.858;7.232;2023-08-30T02:56:40;3.60;;;2.90;;
12950;SDS011;6540;50.858;7.232;2023-08-30T02:59:06;3.07;;;2.77;;
12950;SDS011;6540;50.858;7.232;2023-08-30T03:01:31;3.67;;;3.37;;
12950;SDS011;6540;50.858;7.232;2023-08-30T03:03:56;2.97;;;2.60;;
12950;SDS011;6540;50.858;7.232;2023-08-30T03:06:22;3.77;;;3.43;;
12950;SDS011;6540;50.858;7.232;2023-08-30T03:08:47;3.23;;;2.93;;
12950;SDS011;6540;50.858;7.232;2023-08-30T03:11:13;2.73;;;2.53;;
12950;SDS011;6540;50.858;7.232;2023-08-30T03:13:39;3.00;;;2.80;;
12950;SDS011;6540;50.858;7.232;2023-08-30T03:16:13;2.93;;;2.63;;
12950;SDS011;6540;50.858;7.232;2023-08-30T03:18:40;3.40;;;2.90;;
12950;SDS011;6540;50.858;7.232;2023-08-30T03:21:06;3.63;;;3.33;;
12950;SDS011;6540;50.858;7.232;2023-08-30T03:23:32;3.37;;;2.93;;
12950;SDS011;6540;50.858;7.232;2023-08-30T03:26:06;5.57;;;4.20;;
12950;SDS011;6540;50.858;7.232;2023-08-30T03:28:33;3.83;;;3.30;;
12950;SDS011;6540;50.858;7.232;2023-08-30T03:30:58;3.17;;;2.90;;
12950;SDS011;6540;50.858;7.232;2023-08-30T03:33:24;2.93;;;2.60;;
12950;SDS011;6540;50.858;7.232;2023-08-30T03:35:49;3.50;;;3.20;;
12950;SDS011;6540;50.858;7.232;2023-08-30T03:38:14;4.17;;;3.60;;
12950;SDS011;6540;50.858;7.232;2023-08-30T03:40:39;5.83;;;4.47;;
12950;SDS011;6540;50.858;7.232;2023-08-30T03:43:05;3.03;;;2.73;;
12950;SDS011;6540;50.858;7.232;2023-08-30T03:45:34;3.83;;;3.33;;
12950;SDS011;6540;50.858;7.232;2023-08-30T03:48:00;4.17;;;3.67;;
12950;SDS011;6540;50.858;7.232;2023-08-30T03:50:25;5.00;;;3.93;;
12950;SDS011;6540;50.858;7.232;2023-08-30T03:52:50;4.30;;;3.90;;
12950;SDS011;6540;50.858;7.232;2023-08-30T03:55:15;4.13;;;2.97;;
12950;SDS011;6540;50.858;7.232;2023-08-30T03:57:41;3.40;;;3.10;;
12950;SDS011;6540;50.858;7.232;2023-08-30T04:00:06;3.43;;;3.13;;
12950;SDS011;6540;50.858;7.232;2023-08-30T04:02:32;4.47;;;3.13;;
12950;SDS011;6540;50.858;7.232;2023-08-30T04:04:57;3.13;;;2.83;;
12950;SDS011;6540;50.858;7.232;2023-08-30T04:07:23;3.47;;;3.03;;
12950;SDS011;6540;50.858;7.232;2023-08-30T04:09:49;2.80;;;2.60;;
12950;SDS011;6540;50.858;7.232;2023-08-30T04:12:15;3.70;;;3.40;;
12950;SDS011;6540;50.858;7.232;2023-08-30T04:14:40;3.87;;;3.47;;
12950;SDS011;6540;50.858;7.232;2023-08-30T04:17:05;3.50;;;3.20;;
12950;SDS011;6540;50.858;7.232;2023-08-30T04:19:30;3.80;;;3.43;;
12950;SDS011;6540;50.858;7.232;2023-08-30T04:21:56;3.93;;;3.47;;
12950;SDS011;6540;50.858;7.232;2023-08-30T04:24:21;2.80;;;2.60;;
12950;SDS011;6540;50.858;7.232;2023-08-30T04:26:47;3.60;;;3.23;;
12950;SDS011;6540;50.858;7.232;2023-08-30T04:29:16;3.33;;;3.03;;
12950;SDS011;6540;50.858;7.232;2023-08-30T04:31:42;3.37;;;3.07;;
12950;SDS011;6540;50.858;7.232;2023-08-30T04:34:08;4.10;;;3.30;;
12950;SDS011;6540;50.858;7.232;2023-08-30T04:36:33;3.93;;;3.63;;
12950;SDS011;6540;50.858;7.232;2023-08-30T04:38:59;4.47;;;3.57;;
12950;SDS011;6540;50.858;7.232;2023-08-30T04:41:24;3.00;;;2.70;;
12950;SDS011;6540;50.858;7.232;2023-08-30T04:43:49;2.93;;;2.70;;
12950;SDS011;6540;50.858;7.232;2023-08-30T04:46:15;3.20;;;2.77;;
12950;SDS011;6540;50.858;7.232;2023-08-30T04:48:40;3.63;;;3.13;;
12950;SDS011;6540;50.858;7.232;2023-08-30T04:51:06;3.13;;;2.80;;
12950;SDS011;6540;50.858;7.232;2023-08-30T04:53:31;2.83;;;2.60;;
12950;SDS011;6540;50.858;7.232;2023-08-30T04:55:56;3.90;;;3.60;;
12950;SDS011;6540;50.858;7.232;2023-08-30T04:58:22;3.00;;;2.57;;
12950;SDS011;6540;50.858;7.232;2023-08-30T05:00:47;5.50;;;3.87;;
12950;SDS011;6540;50.858;7.232;2023-08-30T05:03:13;3.93;;;3.50;;
12950;SDS011;6540;50.858;7.232;2023-08-30T05:05:38;3.57;;;3.27;;
12950;SDS011;6540;50.858;7.232;2023-08-30T05:08:03;2.97;;;2.77;;
12950;SDS011;6540;50.858;7.232;2023-08-30T05:10:29;4.27;;;3.40;;
12950;SDS011;6540;50.858;7.232;2023-08-30T05:12:54;3.20;;;2.87;;
12950;SDS011;6540;50.858;7.232;2023-08-30T05:15:20;4.43;;;3.73;;
12950;SDS011;6540;50.858;7.232;2023-08-30T05:17:45;3.17;;;2.93;;
12950;SDS011;6540;50.858;7.232;2023-08-30T05:20:11;4.03;;;3.47;;
12950;SDS011;6540;50.858;7.232;2023-08-30T05:22:37;3.30;;;3.00;;
12950;SDS011;6540;50.858;7.232;2023-08-30T05:25:03;8.03;;;3.10;;
12950;SDS011;6540;50.858;7.232;2023-08-30T05:27:29;3.23;;;2.40;;
12950;SDS011;6540;50.858;7.232;2023-08-30T05:29:54;5.20;;;3.10;;
12950;SDS011;6540;50.858;7.232;2023-08-30T05:32:21;2.93;;;2.47;;
12950;SDS011;6540;50.858;7.232;2023-08-30T05:34:47;3.53;;;3.23;;
12950;SDS011;6540;50.858;7.232;2023-08-30T05:37:12;3.50;;;3.20;;
12950;SDS011;6540;50.858;7.232;2023-08-30T05:39:37;3.00;;;2.73;;
12950;SDS011;6540;50.858;7.232;2023-08-30T05:42:03;4.17;;;3.30;;
12950;SDS011;6540;50.858;7.232;2023-08-30T05:44:28;5.37;;;3.37;;
12950;SDS011;6540;50.858;7.232;2023-08-30T05:46:54;3.27;;;2.97;;
12950;SDS011;6540;50.858;7.232;2023-08-30T05:49:19;3.30;;;3.00;;
12950;SDS011;6540;50.858;7.232;2023-08-30T05:51:45;4.23;;;3.83;;
12950;SDS011;6540;50.858;7.232;2023-08-30T05:54:10;3.07;;;2.83;;
12950;SDS011;6540;50.858;7.232;2023-08-30T05:56:35;4.97;;;3.93;;
12950;SDS011;6540;50.858;7.232;2023-08-30T05:59:01;4.23;;;3.20;;
12950;SDS011;6540;50.858;7.232;2023-08-30T06:01:26;5.57;;;3.67;;
12950;SDS011;6540;50.858;7.232;2023-08-30T06:03:51;4.30;;;3.10;;
12950;SDS011;6540;50.858;7.232;2023-08-30T06:06:17;3.40;;;3.10;;
12950;SDS011;6540;50.858;7.232;2023-08-30T06:08:42;4.30;;;3.63;;
12950;SDS011;6540;50.858;7.232;2023-08-30T06:11:08;3.37;;;3.07;;
12950;SDS011;6540;50.858;7.232;2023-08-30T06:13:33;3.67;;;3.00;;
12950;SDS011;6540;50.858;7.232;2023-08-30T06:15:59;4.00;;;3.23;;
12950;SDS011;6540;50.858;7.232;2023-08-30T06:18:24;2.87;;;2.57;;
12950;SDS011;6540;50.858;7.232;2023-08-30T06:20:49;3.77;;;3.37;;
12950;SDS011;6540;50.858;7.232;2023-08-30T06:23:18;3.97;;;3.40;;
12950;SDS011;6540;50.858;7.232;2023-08-30T06:25:44;3.90;;;3.60;;
12950;SDS011;6540;50.858;7.232;2023-08-30T06:28:09;4.33;;;3.93;;
12950;SDS011;6540;50.858;7.232;2023-08-30T06:30:35;3.77;;;3.47;;
12950;SDS011;6540;50.858;7.232;2023-08-30T06:33:00;4.07;;;3.67;;
12950;SDS011;6540;50.858;7.232;2023-08-30T06:35:25;3.40;;;3.10;;
12950;SDS011;6540;50.858;7.232;2023-08-30T06:37:51;3.90;;;3.50;;
12950;SDS011;6540;50.858;7.232;2023-08-30T06:40:17;5.33;;;3.97;;
12950;SDS011;6540;50.858;7.232;2023-08-30T06:42:42;3.43;;;3.13;;
12950;SDS011;6540;50.858;7.232;2023-08-30T06:45:08;3.57;;;3.27;;
12950;SDS011;6540;50.858;7.232;2023-08-30T06:47:34;3.37;;;3.07;;
12950;SDS011;6540;50.858;7.232;2023-08-30T06:50:00;3.77;;;3.33;;
12950;SDS011;6540;50.858;7.232;2023-08-30T06:52:27;4.03;;;3.60;;
12950;SDS011;6540;50.858;7.232;2023-08-30T06:54:52;4.70;;;3.80;;
12950;SDS011;6540;50.858;7.232;2023-08-30T06:57:18;4.43;;;3.63;;
12950;SDS011;6540;50.858;7.232;2023-08-30T06:59:43;3.80;;;3.20;;
12950;SDS011;6540;50.858;7.232;2023-08-30T07:02:08;4.40;;;3.83;;
12950;SDS011;6540;50.858;7.232;2023-08-30T07:04:34;3.63;;;3.13;;
12950;SDS011;6540;50.858;7.232;2023-08-30T07:06:59;3.73;;;3.13;;
12950;SDS011;6540;50.858;7.232;2023-08-30T07:09:24;4.30;;;3.43;;
12950;SDS011;6540;50.858;7.232;2023-08-30T07:11:56;4.87;;;4.37;;
12950;SDS011;6540;50.858;7.232;2023-08-30T07:14:22;5.90;;;4.00;;
12950;SDS011;6540;50.858;7.232;2023-08-30T07:16:47;3.60;;;3.30;;
12950;SDS011;6540;50.858;7.232;2023-08-30T07:19:14;6.30;;;4.37;;
12950;SDS011;6540;50.858;7.232;2023-08-30T07:21:40;3.17;;;2.93;;
12950;SDS011;6540;50.858;7.232;2023-08-30T07:24:06;3.10;;;2.80;;
12950;SDS011;6540;50.858;7.232;2023-08-30T07:26:32;4.00;;;3.50;;
12950;SDS011;6540;50.858;7.232;2023-08-30T07:28:58;3.27;;;2.97;;
12950;SDS011;6540;50.858;7.232;2023-08-30T07:31:23;5.50;;;4.10;;
12950;SDS011;6540;50.858;7.232;2023-08-30T07:33:48;3.60;;;3.30;;
12950;SDS011;6540;50.858;7.232;2023-08-30T07:36:14;2.90;;;2.70;;
12950;SDS011;6540;50.858;7.232;2023-08-30T07:38:39;3.87;;;3.13;;
12950;SDS011;6540;50.858;7.232;2023-08-30T07:41:04;3.67;;;2.87;;
12950;SDS011;6540;50.858;7.232;2023-08-30T07:43:30;2.53;;;2.33;;
12950;SDS011;6540;50.858;7.232;2023-08-30T07:45:55;2.77;;;2.57;;
12950;SDS011;6540;50.858;7.232;2023-08-30T07:48:21;4.00;;;3.37;;
12950;SDS011;6540;50.858;7.232;2023-08-30T07:50:47;2.60;;;2.40;;
12950;SDS011;6540;50.858;7.232;2023-08-30T07:53:12;4.27;;;3.50;;
12950;SDS011;6540;50.858;7.232;2023-08-30T07:55:37;3.30;;;3.00;;
12950;SDS011;6540;50.858;7.232;2023-08-30T07:58:03;3.23;;;2.57;;
12950;SDS011;6540;50.858;7.232;2023-08-30T08:00:29;2.70;;;2.40;;
12950;SDS011;6540;50.858;7.232;2023-08-30T08:02:54;3.27;;;2.97;;
12950;SDS011;6540;50.858;7.232;2023-08-30T08:05:20;3.27;;;2.97;;
12950;SDS011;6540;50.858;7.232;2023-08-30T08:07:45;3.30;;;2.63;;
12950;SDS011;6540;50.858;7.232;2023-08-30T08:10:10;2.27;;;2.07;;
12950;SDS011;6540;50.858;7.232;2023-08-30T08:12:36;2.80;;;2.60;;
12950;SDS011;6540;50.858;7.232;2023-08-30T08:15:02;3.13;;;2.83;;
12950;SDS011;6540;50.858;7.232;2023-08-30T08:17:28;3.93;;;2.33;;
12950;SDS011;6540;50.858;7.232;2023-08-30T08:19:54;2.33;;;2.13;;
12950;SDS011;6540;50.858;7.232;2023-08-30T08:22:19;2.10;;;1.97;;
12950;SDS011;6540;50.858;7.232;2023-08-30T08:24:44;2.73;;;2.00;;
12950;SDS011;6540;50.858;7.232;2023-08-30T08:27:11;2.23;;;2.03;;
12950;SDS011;6540;50.858;7.232;2023-08-30T08:29:36;2.33;;;2.13;;
12950;SDS011;6540;50.858;7.232;2023-08-30T08:32:02;5.60;;;2.83;;
12950;SDS011;6540;50.858;7.232;2023-08-30T08:34:28;3.43;;;2.63;;
12950;SDS011;6540;50.858;7.232;2023-08-30T08:36:53;2.17;;;1.97;;
12950;SDS011;6540;50.858;7.232;2023-08-30T08:39:18;1.97;;;1.70;;
12950;SDS011;6540;50.858;7.232;2023-08-30T08:41:44;2.90;;;1.97;;
12950;SDS011;6540;50.858;7.232;2023-08-30T08:44:10;2.33;;;1.80;;
12950;SDS011;6540;50.858;7.232;2023-08-30T08:46:37;1.67;;;1.57;;
12950;SDS011;6540;50.858;7.232;2023-08-30T08:49:13;2.20;;;1.60;;
12950;SDS011;6540;50.858;7.232;2023-08-30T08:51:40;1.93;;;1.70;;
12950;SDS011;6540;50.858;7.232;2023-08-30T08:54:06;2.37;;;1.83;;
12950;SDS011;6540;50.858;7.232;2023-08-30T08:56:34;2.23;;;1.80;;
12950;SDS011;6540;50.858;7.232;2023-08-30T08:59:00;2.27;;;1.90;;
12950;SDS011;6540;50.858;7.232;2023-08-30T09:01:26;1.53;;;1.43;;
12950;SDS011;6540;50.858;7.232;2023-08-30T09:03:52;1.43;;;1.33;;
12950;SDS011;6540;50.858;7.232;2023-08-30T09:06:17;1.80;;;1.27;;
12950;SDS011;6540;50.858;7.232;2023-08-30T09:08:43;1.70;;;1.60;;
12950;SDS011;6540;50.858;7.232;2023-08-30T09:11:08;1.23;;;1.20;;
12950;SDS011;6540;50.858;7.232;2023-08-30T09:13:34;3.07;;;1.20;;
12950;SDS011;6540;50.858;7.232;2023-08-30T09:16:00;2.40;;;1.97;;
12950;SDS011;6540;50.858;7.232;2023-08-30T09:18:27;5.90;;;1.87;;
12950;SDS011;6540;50.858;7.232;2023-08-30T09:21:04;1.13;;;1.10;;
12950;SDS011;6540;50.858;7.232;2023-08-30T09:23:30;1.47;;;1.37;;
12950;SDS011;6540;50.858;7.232;2023-08-30T09:25:55;1.50;;;1.40;;
12950;SDS011;6540;50.858;7.232;2023-08-30T09:28:20;1.50;;;1.40;;
12950;SDS011;6540;50.858;7.232;2023-08-30T09:30:49;3.00;;;1.40;;
12950;SDS011;6540;50.858;7.232;2023-08-30T09:33:16;1.70;;;1.60;;
12950;SDS011;6540;50.858;7.232;2023-08-30T09:35:45;1.57;;;1.47;;
12950;SDS011;6540;50.858;7.232;2023-08-30T09:38:20;3.10;;;1.80;;
12950;SDS011;6540;50.858;7.232;2023-08-30T09:40:46;1.60;;;1.50;;
12950;SDS011;6540;50.858;7.232;2023-08-30T09:43:12;1.17;;;1.07;;
12950;SDS011;6540;50.858;7.232;2023-08-30T09:45:39;2.57;;;1.70;;
12950;SDS011;6540;50.858;7.232;2023-08-30T09:48:07;2.90;;;1.87;;
12950;SDS011;6540;50.858;7.232;2023-08-30T09:50:35;1.33;;;1.10;;
12950;SDS011;6540;50.858;7.232;2023-08-30T09:53:08;2.13;;;1.40;;
12950;SDS011;6540;50.858;7.232;2023-08-30T09:55:34;1.80;;;1.63;;
12950;SDS011;6540;50.858;7.232;2023-08-30T09:58:03;1.97;;;1.87;;
12950;SDS011;6540;50.858;7.232;2023-08-30T10:00:30;2.23;;;1.27;;
12950;SDS011;6540;50.858;7.232;2023-08-30T10:02:58;1.80;;;1.40;;
12950;SDS011;6540;50.858;7.232;2023-08-30T10:05:24;1.30;;;1.20;;
12950;SDS011;6540;50.858;7.232;2023-08-30T10:07:52;1.30;;;1.20;;
12950;SDS011;6540;50.858;7.232;2023-08-30T10:10:18;2.50;;;1.70;;
12950;SDS011;6540;50.858;7.232;2023-08-30T10:12:45;3.63;;;1.60;;
12950;SDS011;6540;50.858;7.232;2023-08-30T10:15:11;1.33;;;1.23;;
12950;SDS011;6540;50.858;7.232;2023-08-30T10:17:37;1.30;;;1.20;;
12950;SDS011;6540;50.858;7.232;2023-08-30T10:20:06;4.73;;;1.53;;
12950;SDS011;6540;50.858;7.232;2023-08-30T10:22:32;1.23;;;1.17;;
12950;SDS011;6540;50.858;7.232;2023-08-30T10:25:05;1.37;;;1.17;;
12950;SDS011;6540;50.858;7.232;2023-08-30T10:27:34;1.47;;;1.23;;
12950;SDS011;6540;50.858;7.232;2023-08-30T10:30:02;1.73;;;1.63;;
12950;SDS011;6540;50.858;7.232;2023-08-30T10:32:30;3.43;;;1.13;;
12950;SDS011;6540;50.858;7.232;2023-08-30T10:35:00;2.80;;;1.53;;
12950;SDS011;6540;50.858;7.232;2023-08-30T10:37:26;1.70;;;1.60;;
12950;SDS011;6540;50.858;7.232;2023-08-30T10:39:52;1.57;;;1.40;;
12950;SDS011;6540;50.858;7.232;2023-08-30T10:42:21;1.20;;;1.10;;
12950;SDS011;6540;50.858;7.232;2023-08-30T10:44:48;2.27;;;1.70;;
12950;SDS011;6540;50.858;7.232;2023-08-30T10:47:29;2.33;;;1.57;;
12950;SDS011;6540;50.858;7.232;2023-08-30T10:49:56;1.50;;;1.40;;
12950;SDS011;6540;50.858;7.232;2023-08-30T10:52:23;1.90;;;1.80;;
12950;SDS011;6540;50.858;7.232;2023-08-30T10:54:49;1.50;;;1.40;;
12950;SDS011;6540;50.858;7.232;2023-08-30T10:57:23;1.60;;;1.50;;
12950;SDS011;6540;50.858;7.232;2023-08-30T11:02:32;1.70;;;1.60;;
12950;SDS011;6540;50.858;7.232;2023-08-30T11:05:01;5.97;;;2.50;;
12950;SDS011;6540;50.858;7.232;2023-08-30T11:07:28;2.90;;;2.50;;
12950;SDS011;6540;50.858;7.232;2023-08-30T11:09:54;2.20;;;2.00;;
12950;SDS011;6540;50.858;7.232;2023-08-30T11:12:20;2.80;;;2.53;;
12950;SDS011;6540;50.858;7.232;2023-08-30T11:14:48;2.33;;;2.13;;
12950;SDS011;6540;50.858;7.232;2023-08-30T11:17:18;2.43;;;2.07;;
12950;SDS011;6540;50.858;7.232;2023-08-30T11:19:44;2.03;;;1.93;;
12950;SDS011;6540;50.858;7.232;2023-08-30T11:22:10;1.87;;;1.77;;
12950;SDS011;6540;50.858;7.232;2023-08-30T11:24:35;1.70;;;1.60;;
12950;SDS011;6540;50.858;7.232;2023-08-30T11:27:01;2.73;;;2.20;;
12950;SDS011;6540;50.858;7.232;2023-08-30T11:29:26;1.93;;;1.73;;
12950;SDS011;6540;50.858;7.232;2023-08-30T11:31:52;1.40;;;1.30;;
12950;SDS011;6540;50.858;7.232;2023-08-30T11:34:20;1.80;;;1.70;;
12950;SDS011;6540;50.858;7.232;2023-08-30T11:36:47;2.10;;;1.90;;
12950;SDS011;6540;50.858;7.232;2023-08-30T11:39:13;2.20;;;2.00;;
12950;SDS011;6540;50.858;7.232;2023-08-30T11:41:39;1.47;;;1.37;;
12950;SDS011;6540;50.858;7.232;2023-08-30T11:44:05;1.87;;;1.77;;
12950;SDS011;6540;50.858;7.232;2023-08-30T11:46:30;1.47;;;1.37;;
12950;SDS011;6540;50.858;7.232;2023-08-30T11:48:56;2.27;;;2.07;;
12950;SDS011;6540;50.858;7.232;2023-08-30T11:51:22;2.23;;;2.03;;
12950;SDS011;6540;50.858;7.232;2023-08-30T11:53:47;2.37;;;1.73;;
12950;SDS011;6540;50.858;7.232;2023-08-30T11:56:14;1.30;;;1.23;;
12950;SDS011;6540;50.858;7.232;2023-08-30T11:58:40;3.50;;;2.00;;
12950;SDS011;6540;50.858;7.232;2023-08-30T12:01:06;1.80;;;1.70;;
12950;SDS011;6540;50.858;7.232;2023-08-30T12:03:32;1.93;;;1.70;;
12950;SDS011;6540;50.858;7.232;2023-08-30T12:05:58;1.60;;;1.47;;
12950;SDS011;6540;50.858;7.232;2023-08-30T12:08:27;3.27;;;2.27;;
12950;SDS011;6540;50.858;7.232;2023-08-30T12:10:55;2.30;;;2.10;;
12950;SDS011;6540;50.858;7.232;2023-08-30T12:13:22;3.07;;;1.60;;
12950;SDS011;6540;50.858;7.232;2023-08-30T12:15:51;1.63;;;1.53;;
12950;SDS011;6540;50.858;7.232;2023-08-30T12:18:20;2.10;;;1.90;;
12950;SDS011;6540;50.858;7.232;2023-08-30T12:20:53;2.60;;;1.63;;
12950;SDS011;6540;50.858;7.232;2023-08-30T12:23:19;1.90;;;1.80;;
12950;SDS011;6540;50.858;7.232;2023-08-30T12:28:23;6.13;;;2.47;;
12950;SDS011;6540;50.858;7.232;2023-08-30T12:30:50;2.23;;;1.90;;
12950;SDS011;6540;50.858;7.232;2023-08-30T12:33:16;2.50;;;2.30;;
12950;SDS011;6540;50.858;7.232;2023-08-30T12:35:42;1.70;;;1.60;;
12950;SDS011;6540;50.858;7.232;2023-08-30T12:38:07;1.33;;;1.23;;
12950;SDS011;6540;50.858;7.232;2023-08-30T12:40:34;1.77;;;1.63;;
12950;SDS011;6540;50.858;7.232;2023-08-30T12:43:00;2.53;;;2.33;;
12950;SDS011;6540;50.858;7.232;2023-08-30T12:45:26;2.47;;;2.00;;
12950;SDS011;6540;50.858;7.232;2023-08-30T12:47:51;1.60;;;1.50;;
12950;SDS011;6540;50.858;7.232;2023-08-30T12:50:16;2.03;;;1.83;;
12950;SDS011;6540;50.858;7.232;2023-08-30T12:52:42;1.67;;;1.57;;
12950;SDS011;6540;50.858;7.232;2023-08-30T12:55:07;1.77;;;1.43;;
12950;SDS011;6540;50.858;7.232;2023-08-30T12:57:33;2.60;;;1.60;;
12950;SDS011;6540;50.858;7.232;2023-08-30T12:59:58;2.00;;;1.80;;
12950;SDS011;6540;50.858;7.232;2023-08-30T13:02:24;3.87;;;2.10;;
12950;SDS011;6540;50.858;7.232;2023-08-30T13:04:49;1.53;;;1.43;;
12950;SDS011;6540;50.858;7.232;2023-08-30T13:07:15;1.80;;;1.70;;
12950;SDS011;6540;50.858;7.232;2023-08-30T13:09:40;1.73;;;1.63;;
12950;SDS011;6540;50.858;7.232;2023-08-30T13:12:06;2.10;;;1.87;;
12950;SDS011;6540;50.858;7.232;2023-08-30T13:14:31;1.70;;;1.60;;
12950;SDS011;6540;50.858;7.232;2023-08-30T13:16:57;2.40;;;1.80;;
12950;SDS011;6540;50.858;7.232;2023-08-30T13:19:23;2.50;;;2.30;;
12950;SDS011;6540;50.858;7.232;2023-08-30T13:21:48;2.60;;;1.97;;
12950;SDS011;6540;50.858;7.232;2023-08-30T13:24:13;2.53;;;2.33;;
12950;SDS011;6540;50.858;7.232;2023-08-30T13:26:39;2.20;;;2.00;;
12950;SDS011;6540;50.858;7.232;2023-08-30T13:29:05;2.37;;;2.17;;
12950;SDS011;6540;50.858;7.232;2023-08-30T13:31:30;2.90;;;2.70;;
12950;SDS011;6540;50.858;7.232;2023-08-30T13:33:56;2.63;;;2.43;;
12950;SDS011;6540;50.858;7.232;2023-08-30T13:36:21;2.50;;;2.30;;
12950;SDS011;6540;50.858;7.232;2023-08-30T13:38:46;2.57;;;2.20;;
12950;SDS011;6540;50.858;7.232;2023-08-30T13:41:12;2.33;;;2.10;;
12950;SDS011;6540;50.858;7.232;2023-08-30T13:43:37;2.43;;;2.23;;
12950;SDS011;6540;50.858;7.232;2023-08-30T13:46:02;2.10;;;2.00;;
12950;SDS011;6540;50.858;7.232;2023-08-30T13:48:28;5.53;;;2.73;;
12950;SDS011;6540;50.858;7.232;2023-08-30T13:50:53;2.13;;;2.03;;
12950;SDS011;6540;50.858;7.232;2023-08-30T13:53:19;2.73;;;2.53;;
12950;SDS011;6540;50.858;7.232;2023-08-30T13:55:45;2.20;;;1.97;;
12950;SDS011;6540;50.858;7.232;2023-08-30T13:58:13;3.33;;;2.27;;
12950;SDS011;6540;50.858;7.232;2023-08-30T14:00:38;2.00;;;1.90;;
12950;SDS011;6540;50.858;7.232;2023-08-30T14:03:04;1.80;;;1.70;;
12950;SDS011;6540;50.858;7.232;2023-08-30T14:05:29;2.33;;;2.13;;
12950;SDS011;6540;50.858;7.232;2023-08-30T14:07:54;2.17;;;2.03;;
12950;SDS011;6540;50.858;7.232;2023-08-30T14:10:20;2.33;;;2.13;;
12950;SDS011;6540;50.858;7.232;2023-08-30T14:12:45;3.00;;;2.80;;
12950;SDS011;6540;50.858;7.232;2023-08-30T14:15:10;2.90;;;2.70;;
12950;SDS011;6540;50.858;7.232;2023-08-30T14:17:36;2.33;;;2.13;;
12950;SDS011;6540;50.858;7.232;2023-08-30T14:20:01;2.73;;;2.43;;
12950;SDS011;6540;50.858;7.232;2023-08-30T14:22:27;2.37;;;2.17;;
12950;SDS011;6540;50.858;7.232;2023-08-30T14:24:53;1.63;;;1.53;;
12950;SDS011;6540;50.858;7.232;2023-08-30T14:27:18;3.33;;;2.20;;
12950;SDS011;6540;50.858;7.232;2023-08-30T14:29:43;2.17;;;1.97;;
12950;SDS011;6540;50.858;7.232;2023-08-30T14:32:09;1.77;;;1.53;;
12950;SDS011;6540;50.858;7.232;2023-08-30T14:34:38;1.30;;;1.20;;
12950;SDS011;6540;50.858;7.232;2023-08-30T14:37:03;1.20;;;1.10;;
12950;SDS011;6540;50.858;7.232;2023-08-30T14:39:28;1.10;;;1.07;;
12950;SDS011;6540;50.858;7.232;2023-08-30T14:41:54;1.30;;;1.20;;
12950;SDS011;6540;50.858;7.232;2023-08-30T14:44:21;0.93;;;0.87;;
12950;SDS011;6540;50.858;7.232;2023-08-30T14:46:50;1.13;;;0.90;;
12950;SDS011;6540;50.858;7.232;2023-08-30T14:49:16;1.47;;;1.20;;
12950;SDS011;6540;50.858;7.232;2023-08-30T14:51:41;0.80;;;0.80;;
12950;SDS011;6540;50.858;7.232;2023-08-30T14:54:06;0.73;;;0.73;;
12950;SDS011;6540;50.858;7.232;2023-08-30T14:56:32;1.17;;;1.07;;
12950;SDS011;6540;50.858;7.232;2023-08-30T14:58:57;0.73;;;0.73;;
12950;SDS011;6540;50.858;7.232;2023-08-30T15:01:26;0.63;;;0.60;;
12950;SDS011;6540;50.858;7.232;2023-08-30T15:03:51;1.43;;;1.10;;
12950;SDS011;6540;50.858;7.232;2023-08-30T15:06:17;0.83;;;0.80;;
12950;SDS011;6540;50.858;7.232;2023-08-30T15:08:42;2.30;;;1.10;;
12950;SDS011;6540;50.858;7.232;2023-08-30T15:11:08;0.87;;;0.87;;
12950;SDS011;6540;50.858;7.232;2023-08-30T15:13:35;1.57;;;1.47;;